x

8452944 - Conimicut Light, Ri (cptr1) Weather Station

9:30 - Fri 22nd Aug 2014 All times are EDT. -4 hours from GMT.

  • Wind
    9mph, 14mph gusts
  • Sea Temp 74°f
  • Ar Temp 68°f
  • Sea Pressure 1018.5mb
  • 8452944 - Conimicut Light, Ri
  • 8452944 - Conimicut Light, Ri

More Historic Weather Station data

Upgrade to MSW Pro to gain access to the past 30 days of data for over 8000 Wavebouys and Weather Stations around the globe.

Join Pro

Comparision Forecast

View Surf forecast
   
Sex 08/22 9:30 9 14 mph 1018.5mb 74f 68f
9:24 10 13 mph 1018.5mb 74f 68f
9:18 9 11 mph 1018.5mb 74f 68f
9:12 10 15 mph 1018.6mb 74f 68f
9:06 10 14 mph 1018.5mb 74f 68f
9:00 9 13 mph 1018.5mb 74f 68f
8:54 8 10 mph 1018.5mb 74f 68f
8:48 8 11 mph 1018.5mb 74f 68f
8:42 9 13 mph 1018.4mb 74f 68f
8:36 9 11 mph 1018.4mb 74f 69f
8:30 9 14 mph 1018.3mb 74f 69f
8:24 8 10 mph 1018.3mb 74f 69f
8:18 10 16 mph 1018.2mb 74f 69f
8:12 10 15 mph 1018.2mb 74f 69f
8:06 10 14 mph 1018.2mb 74f 69f
8:00 10 13 mph 1018.1mb 74f 69f
7:54 10 13 mph 1018.1mb 74f 69f
7:48 11 15 mph 1018mb 73f 70f
7:42 14 15 mph 1017.9mb 73f 70f
7:36 13 15 mph 1017.9mb 73f 70f
7:30 14 18 mph 1017.9mb 73f 70f
7:24 13 18 mph 1017.9mb 73f 70f
7:18 15 17 mph 1017.9mb 73f 70f
7:12 15 18 mph 1017.9mb 73f 71f
7:06 16 18 mph 1017.9mb 73f 71f
7:00 15 17 mph 1017.8mb 73f 71f
6:54 15 16 mph 1017.8mb 73f 71f
6:48 11 15 mph 1017.7mb 73f 71f
6:42 13 15 mph 1017.7mb 73f 71f
6:36 11 14 mph 1017.7mb 73f 72f
6:30 11 15 mph 1017.7mb 73f 72f
6:24 14 15 mph 1017.6mb 73f 71f
6:18 14 18 mph 1017.6mb 73f 71f
6:12 14 17 mph 1017.5mb 73f 72f
6:06 11 14 mph 1017.5mb 73f 72f
6:00 9 13 mph 1017.5mb 73f 72f
5:54 11 14 mph 1017.5mb 73f 72f
5:48 10 13 mph 1017.5mb 73f 72f
5:42 10 14 mph 1017.4mb 73f 72f
5:36 13 14 mph 1017.4mb 73f 72f
5:30 13 15 mph 1017.3mb 73f 72f
5:24 14 15 mph 1017.3mb 73f 72f
5:18 11 14 mph 1017.3mb 73f 72f
5:12 15 16 mph 1017.2mb 73f 72f
5:06 14 20 mph 1017.2mb 73f 72f
5:00 15 17 mph 1017.2mb 73f 72f
4:54 13 16 mph 1017.2mb 74f 73f
4:48 14 17 mph 1017.1mb 74f 73f
4:42 13 16 mph 1017.2mb 74f 73f
4:36 14 16 mph 1017.1mb 74f 73f
4:30 14 17 mph 1017.1mb 74f 73f
4:24 14 17 mph 1017.1mb 74f 73f
4:18 11 15 mph 1017.1mb 74f 73f
4:12 9 11 mph 1017.2mb 74f 73f
4:06 10 13 mph 1017.2mb 74f 73f
4:00 9 13 mph 1017.2mb 74f 73f
3:54 11 14 mph 1017.2mb 74f 73f
3:48 11 15 mph 1017.2mb 74f 73f
3:42 10 14 mph 1017.3mb 74f 73f
3:36 14 16 mph 1017.3mb 74f 72f
3:30 13 15 mph 1017.4mb 74f 73f
3:24 13 17 mph 1017.4mb 74f 73f
3:18 15 18 mph 1017.4mb 74f 73f
3:12 15 16 mph 1017.3mb 74f 73f
3:06 11 14 mph 1017.3mb 74f 73f
3:00 14 16 mph 1017.4mb 74f 72f
2:54 14 17 mph 1017.4mb 74f 72f
2:48 14 17 mph 1017.4mb 74f 73f
2:42 11 15 mph 1017.5mb 74f 73f
2:36 13 15 mph 1017.5mb 73f 73f
2:30 9 13 mph 1017.7mb 73f 73f
2:24 10 14 mph 1017.7mb 74f 73f
2:18 13 14 mph 1017.8mb 74f 72f
2:12 10 13 mph 1017.8mb 74f 72f
2:06 11 13 mph 1017.9mb 74f 72f
2:00 11 13 mph 1017.9mb 74f 72f
1:54 10 11 mph 1017.9mb 74f 72f
1:48 9 10 mph 1018mb 74f 72f
1:42 9 11 mph 1018mb 74f 72f
1:36 8 9 mph 1018mb 74f 72f
1:30 8 9 mph 1018mb 74f 72f
1:24 6 9 mph 1018mb 74f 72f
1:18 9 10 mph 1018mb 74f 72f
1:12 9 10 mph 1018mb 74f 72f
1:06 8 9 mph 1018mb 74f 72f
1:00 8 11 mph 1018mb 74f 72f
12:54 10 14 mph 1018mb 74f 71f
12:48 11 13 mph 1017.9mb 74f 71f
12:42 10 11 mph 1017.9mb 74f 71f
12:36 9 14 mph 1018mb 74f 71f
12:30 7 10 mph 1018mb 74f 71f
12:24 10 13 mph 1018mb 74f 72f
12:18 11 14 mph 1018mb 74f 72f
12:12 7 10 mph 1017.9mb 74f 71f
12:06 7 11 mph 1018mb 74f 71f
12:00 10 13 mph 1017.9mb 74f 71f
11:54 8 10 mph 1018mb 74f 71f
11:48 8 13 mph 1018.1mb 74f 70f
11:42 9 11 mph 1018mb 74f 70f
11:36 7 10 mph 1018.1mb 74f 70f
11:30 8 11 mph 1018.1mb 74f 70f
11:24 9 11 mph 1018.1mb 74f 70f
11:18 8 10 mph 1018.1mb 74f 70f
11:12 8 13 mph 1018.1mb 74f 70f
11:06 8 10 mph 1018.1mb 74f 70f
11:00 9 14 mph 1018.1mb 74f 70f
10:54 10 13 mph 1018mb 74f 70f
10:48 9 11 mph 1018mb 74f 71f
10:42 10 13 mph 1018mb 74f 70f
10:36 10 14 mph 1018mb 74f 69f
10:30 8 11 mph 1018mb 74f 69f
10:24 8 10 mph 1018mb 73f 68f
10:18 9 13 mph 1017.9mb 73f 68f
10:12 8 13 mph 1017.9mb 73f 68f
10:06 8 10 mph 1018mb 73f 68f
10:00 8 13 mph 1018mb 73f 68f
9:54 8 10 mph 1017.9mb 73f 67f
9:48 8 11 mph 1017.9mb 73f 67f
9:42 7 11 mph 1017.9mb 74f 67f
9:36 8 11 mph 1017.9mb 74f 67f
9:30 8 11 mph 1017.9mb 74f 67f
9:24 7 10 mph 1017.9mb 74f 67f
9:18 11 14 mph 1017.9mb 74f 67f
9:12 9 13 mph 1017.9mb 74f 67f
9:06 9 14 mph 1017.9mb 74f 67f
9:00 13 14 mph 1017.9mb 74f 67f
8:54 9 14 mph 1017.9mb 73f 67f
8:48 10 14 mph 1017.8mb 73f 67f
8:42 11 15 mph 1017.8mb 73f 67f
8:36 11 15 mph 1017.8mb 73f 67f
8:30 10 13 mph 1017.8mb 73f 67f
8:24 8 10 mph 1017.9mb 73f 67f
8:18 7 9 mph 1018mb 73f 67f
8:12 7 10 mph 1018.1mb 73f 66f
8:06 8 11 mph 1018mb 73f 66f
8:00 7 13 mph 1018mb 73f 66f
7:54 10 14 mph 1018mb 73f 66f
7:48 13 15 mph 1017.9mb 73f 66f
7:42 13 14 mph 1017.9mb 73f 66f
7:36 10 14 mph 1017.9mb 73f 66f
7:30 9 13 mph 1017.9mb 73f 66f
7:24 11 13 mph 1017.9mb 73f 66f
7:18 9 11 mph 1017.9mb 73f 66f
7:12 9 11 mph 1017.9mb 73f 66f
7:06 9 10 mph 1017.9mb 73f 66f
7:00 8 9 mph 1017.9mb 73f 66f
6:54 7 9 mph 1018mb 73f 66f
6:48 7 8 mph 1018mb 73f 66f
6:42 6 9 mph 1018mb 73f 65f
6:36 8 11 mph 1017.8mb 73f 65f
6:30 8 9 mph 1017.9mb 73f 65f
6:24 8
mph
1017.8mb 73f 65f
6:18 6 7 mph 1018mb 73f 66f
6:12 7 10 mph 1017.8mb 73f 65f
6:06 9 10 mph 1017.6mb 73f 66f
6:00 8 10 mph 1017.8mb 73f 65f
5:54 7 11 mph 1017.8mb 73f 66f
5:48 9 15 mph 1017.7mb 73f 65f
5:42 11 15 mph 1017.6mb 73f 65f
5:36 11 15 mph 1017.5mb 73f 65f
5:30 13 15 mph 1017.4mb 73f 65f
5:24 11 14 mph 1017.4mb 73f 65f
5:18 10 13 mph 1017.4mb 73f 66f
5:12 8 9 mph 1017.5mb 73f 66f
5:06 7 8 mph 1017.6mb 73f 66f
5:00 8 9 mph 1017.6mb 73f 66f
4:54 7 8 mph 1017.5mb 73f 66f
4:48 7 9 mph 1017.6mb 74f 66f
4:42 8 9 mph 1017.6mb 74f 66f
4:36 8 9 mph 1017.6mb 74f 66f
4:30 6 8 mph 1017.7mb 74f 66f
4:24 6 8 mph 1017.7mb 74f 66f
4:18 8 10 mph 1017.5mb 74f 66f
4:12 8 9 mph 1017.5mb 74f 66f
4:06 8 11 mph 1017.6mb 74f 66f
4:00 9 11 mph 1017.6mb 74f 66f
3:54 7 9 mph 1017.6mb 74f 66f
3:48 7 9 mph 1017.6mb 74f 66f
3:42 9 11 mph 1017.6mb 74f 66f
3:36 8 10 mph 1017.6mb 74f 66f
3:30 8 10 mph 1017.6mb 74f 66f
3:24 10 11 mph 1017.5mb 74f 66f
3:18 9 11 mph 1017.5mb 74f 66f
3:12 8 9 mph 1017.5mb 74f 67f
3:06 8 10 mph 1017.6mb 74f 66f
3:00 8 10 mph 1017.6mb 74f 66f
2:54 7 9 mph 1017.6mb 74f 67f
2:48 8 9 mph 1017.7mb 74f 67f
2:42 7 10 mph 1017.7mb 74f 67f
2:36 8 9 mph 1017.7mb 74f 67f
2:30 7 9 mph 1017.7mb 74f 67f
2:24 9
mph
1017.7mb 74f 67f
2:18 7 9 mph 1017.6mb 74f 67f
2:12 7 9 mph 1017.6mb 74f 67f
2:06 7 9 mph 1017.6mb 74f 67f
2:00 8
mph
1017.6mb 74f 67f
1:54 7 9 mph 1017.6mb 74f 67f
1:48 9
mph
1017.6mb 74f 67f
1:42 8 10 mph 1017.6mb 74f 67f
1:36 9 11 mph 1017.7mb 74f 67f
1:30 10 11 mph 1017.7mb 74f 67f
1:24 11
mph
1017.7mb 74f 67f
1:18 10 11 mph 1017.7mb 74f 68f
1:12 9 10 mph 1017.7mb 74f 68f
1:06 9 10 mph 1017.7mb 74f 68f
1:00 9 10 mph 1017.8mb 74f 68f
12:54 9 10 mph 1017.7mb 74f 68f
12:48 8 9 mph 1017.8mb 74f 68f
12:42 7
mph
1017.8mb 74f 68f
12:36 6 7 mph 1017.9mb 74f 68f
12:30 6 8 mph 1017.9mb 74f 68f
12:24 8
mph
1017.9mb 74f 68f
12:18 6 8 mph 1018mb 74f 68f
12:12 7
mph
1018mb 74f 68f
12:06 7 8 mph 1018mb 74f 69f
12:00 8 9 mph 1018mb 74f 69f
Qui 08/21 11:54 7 8 mph 1018mb 74f 69f
11:48 7 8 mph 1017.9mb 74f 69f
11:42 6 7 mph 1018mb 74f 69f
11:36 6 7 mph 1018.1mb 74f 69f
11:30 7
mph
1018.1mb 74f 69f
11:24 3 6 mph 1018.1mb 74f 69f
11:18 6 7 mph 1018mb 74f 69f
11:12 6 7 mph 1018.1mb 74f 69f
11:06 3 5 mph 1018.2mb 74f 69f
11:00 2 6 mph 1018.1mb 74f 69f
10:54 6
mph
1018.1mb 74f 69f
10:48 6 7 mph 1018mb 74f 69f
10:42 6
mph
1018.1mb 74f 69f
10:36 5 7 mph 1018.1mb 74f 69f
10:30 6
mph
1017.9mb 74f 69f
10:24 5 6 mph 1017.9mb 74f 69f
10:18 5 6 mph 1017.8mb 74f 69f
10:12 5 6 mph 1017.9mb 74f 69f
10:06 6
mph
1018mb 74f 69f
10:00 6 8 mph 1018.1mb 74f 69f
9:54 8
mph
1018.1mb 74f 69f
9:48 7 8 mph 1017.9mb 74f 69f
9:42 8
mph
1017.9mb 74f 69f
9:36 8 9 mph 1017.9mb 74f 69f
9:30 7 9 mph 1017.9mb 74f 69f
9:24 7 9 mph 1017.8mb 74f 69f
9:18 7 8 mph 1017.8mb 75f 69f
9:12 8 9 mph 1017.9mb 75f 69f
9:06 8 9 mph 1018.1mb 75f 69f
9:00 8 9 mph 1018.1mb 75f 69f
8:54 7 8 mph 1018mb 75f 69f
8:48 7 8 mph 1018mb 75f 70f
8:42 8 9 mph 1017.8mb 75f 70f
8:36 8 9 mph 1017.6mb 75f 70f
8:30 8 9 mph 1017.6mb 75f 70f
8:24 7
mph
1017.8mb 75f 70f
8:18 7 8 mph 1017.8mb 75f 70f
8:12 8 9 mph 1017.8mb 74f 70f
8:06 8 10 mph 1017.8mb 74f 70f
8:00 9 10 mph 1017.7mb 74f 70f
7:54 9 10 mph 1017.6mb 74f 70f
7:48 8 10 mph 1017.7mb 74f 70f
7:42 9 11 mph 1017.8mb 74f 70f
7:36 10 13 mph 1017.8mb 74f 70f
7:30 11 13 mph 1017.9mb 74f 70f
7:24 13 14 mph 1017.8mb 73f 70f
7:18 13 15 mph 1017.8mb 73f 70f
7:12 13 14 mph 1017.7mb 73f 71f
7:06 13 14 mph 1017.6mb 73f 71f
7:00 14 15 mph 1017.6mb 73f 70f
6:54 13 15 mph 1017.5mb 73f 71f
6:48 14 15 mph 1017.4mb 72f 71f
6:42 14 15 mph 1017.6mb 72f 71f
6:36 15 16 mph 1017.6mb 72f 71f
6:30 15 18 mph 1017.6mb 72f 71f
6:24 16 17 mph 1017.7mb 72f 71f
6:18 16 17 mph 1017.6mb 72f 71f
6:12 15 16 mph 1017.6mb 71f 71f
6:06 14 16 mph 1017.6mb 71f 71f
6:00 14 16 mph 1017.5mb 71f 71f
5:54 14 15 mph 1017.5mb 71f 71f
5:48 13 16 mph 1017.4mb 71f 72f
5:42 13 14 mph 1017.3mb 71f 72f
5:36 13 14 mph 1017.2mb 71f 72f
5:30 10 13 mph 1017.1mb 71f 73f
5:24 11 13 mph 1017.1mb 71f 73f
5:18 11 14 mph 1017.1mb 72f 72f
5:12 13 14 mph 1017mb 72f 73f
5:06 14 15 mph 1017mb 72f 73f
5:00 14 15 mph 1017.1mb 72f 73f
4:54 13 14 mph 1017.1mb 72f 73f
4:48 11 15 mph 1017mb 72f 73f
4:42 13 14 mph 1017mb 72f 73f
4:36 14
mph
1017mb 72f 73f
4:30 13 14 mph 1017mb 72f 73f
4:24 14 15 mph 1016.9mb 72f 73f
4:18 14 16 mph 1016.8mb 72f 73f
4:12 15 16 mph 1016.9mb 73f 73f
4:06 13 15 mph 1016.9mb 73f 73f
4:00 14 15 mph 1016.8mb 73f 73f
3:54 14 15 mph 1016.9mb 73f 73f
3:48 13 14 mph 1016.9mb 73f 73f
3:42 13 14 mph 1016.9mb 73f 73f
3:36 13 14 mph 1016.9mb 73f 73f
3:30 14 15 mph 1016.9mb 73f 73f
3:24 14
mph
1017.1mb 73f 73f
3:18 13 14 mph 1017.1mb 73f 73f
3:12 13 14 mph 1017.1mb 73f 73f
3:06 13 14 mph 1017.2mb 73f 73f
3:00 13 14 mph 1017.2mb 73f 73f
2:54 13 14 mph 1017.2mb 73f 73f
2:48 11 13 mph 1017.2mb 73f 73f
2:42 13
mph
1017.3mb 73f 73f
2:36 13
mph
1017.3mb 73f 73f
2:30 11 13 mph 1017.4mb 73f 73f
2:24 11 13 mph 1017.4mb 72f 73f
2:18 11 13 mph 1017.5mb 72f 73f
2:12 13
mph
1017.5mb 72f 73f
2:06 11 13 mph 1017.5mb 72f 73f
2:00 11 13 mph 1017.6mb 72f 73f
1:54 8 9 mph 1017.6mb 72f 73f
1:48 8
mph
1017.7mb 72f 73f
1:42 8 9 mph 1017.7mb 72f 73f
1:36 8 10 mph 1017.8mb 73f 73f
1:30 8 10 mph 1017.8mb 73f 73f
1:24 8 9 mph 1017.9mb 73f 74f
1:18 8 10 mph 1017.9mb 73f 74f
1:12 5 6 mph 1017.9mb 74f 74f
1:06 5 6 mph 1018mb 74f 74f
1:00 5 6 mph 1018mb 74f 74f
12:54 6
mph
1018.1mb 74f 74f
12:48 6
mph
1018.1mb 74f 73f
12:42 5 6 mph 1018.1mb 74f 73f
12:36 6
mph
1018.1mb 74f 73f
12:30 5
mph
1018.1mb 74f 73f
12:24 5
mph
1018mb 74f 72f
12:18 3 5 mph 1018mb 74f 73f
12:12 2
mph
1017.9mb 74f 73f
12:06 2 3 mph 1018mb 74f 73f
12:00 3
mph
1018.1mb 74f 72f
11:54 2 3 mph 1018.1mb 74f 73f
11:48 3
mph
1018.1mb 74f 72f
11:42 2 3 mph 1018.2mb 74f 72f
11:36 2 3 mph 1018.3mb 74f 71f
11:30 2 3 mph 1018.3mb 74f 71f
11:24 2 3 mph 1018.2mb 74f 71f
11:18 2 3 mph 1018.3mb 74f 70f
11:12 1 3 mph 1018.3mb 74f 71f
11:06 2 3 mph 1018.4mb 74f 70f
11:00 3 5 mph 1018.5mb 74f 70f
10:54 3 5 mph 1018.5mb 74f 69f
10:48 3
mph
1018.6mb 74f 69f
10:42 2 3 mph 1018.5mb 74f 70f
10:36 2
mph
1018.5mb 74f 70f
10:30 1 3 mph 1018.5mb 74f 71f
10:24 2 5 mph 1018.5mb 73f 70f
10:18 2 5 mph 1018.6mb 73f 72f
10:12 2 5 mph 1018.6mb 73f 72f
10:06 2 5 mph 1018.6mb 73f 71f
10:00 2 5 mph 1018.7mb 73f 71f
9:54 6 7 mph 1018.6mb 73f 70f
9:48 5 6 mph 1018.6mb 73f 70f
9:42 5 6 mph 1018.6mb 73f 69f
9:36 3 5 mph 1018.6mb 73f 69f
9:30 3 6 mph 1018.6mb 73f 68f
9:24 5 6 mph 1018.6mb 73f 67f
9:18 6 7 mph 1018.7mb 73f 67f
9:12 5 6 mph 1018.8mb 73f 67f
9:06 5 6 mph 1018.8mb 73f 66f
9:00 3 6 mph 1018.8mb 73f 66f
8:54 2 5 mph 1018.8mb 73f 66f
8:48 2 6 mph 1018.9mb 73f 65f
8:42 5 8 mph 1018.9mb 73f 65f
8:36 7
mph
1019mb 73f 65f
8:30 6 7 mph 1019mb 73f 65f
8:24 5 6 mph 1019mb 73f 65f
8:18 5 7 mph 1018.9mb 73f 64f
8:12 5 7 mph 1018.9mb 73f 64f
8:06 6 7 mph 1018.9mb 73f 64f
8:00 6 7 mph 1018.9mb 73f 64f
7:54 6 7 mph 1018.8mb 73f 64f
7:48 7 8 mph 1018.7mb 73f 64f
7:42 7 8 mph 1018.7mb 73f 64f
7:36 6 7 mph 1018.6mb 73f 64f
7:30 6 8 mph 1018.5mb 73f 64f
7:24 7 9 mph 1018.4mb 73f 64f
7:18 8 10 mph 1018.2mb 73f 64f
7:12 7 8 mph 1018.1mb 73f 64f
7:06 6 9 mph 1018.1mb 73f 64f
7:00 9 13 mph 1017.9mb 73f 63f
6:54 8 10 mph 1017.8mb 73f 63f
6:48 8 10 mph 1017.8mb 73f 63f
6:42 8 9 mph 1017.9mb 73f 63f
6:36 8 9 mph 1017.9mb 73f 63f
6:30 7 8 mph 1017.9mb 73f 63f
6:24 8 10 mph 1017.8mb 73f 63f
6:18 9 10 mph 1017.7mb 73f 63f
6:12 9 10 mph 1017.8mb 73f 63f
6:06 9 10 mph 1017.8mb 73f 64f
6:00 9 11 mph 1017.7mb 73f 64f
5:54 10 11 mph 1017.6mb 73f 63f
5:48 10 11 mph 1017.6mb 73f 63f
5:42 10 11 mph 1017.4mb 73f 62f
5:36 9 10 mph 1017.4mb 73f 62f
5:30 7 9 mph 1017.3mb 73f 62f
5:24 8 9 mph 1017.1mb 73f 62f
5:18 8 9 mph 1017mb 73f 62f
5:12 6 8 mph 1017.1mb 73f 62f
5:06 6 7 mph 1017.1mb 73f 62f
5:00 6 8 mph 1017.1mb 73f 62f
4:54 7 8 mph 1017mb 73f 62f
4:48 7 9 mph 1017mb 73f 62f
4:42 7 8 mph 1016.9mb 73f 62f
4:36 7 8 mph 1017mb 73f 62f
4:30 7 8 mph 1017.1mb 73f 61f
4:24 7 8 mph 1017mb 73f 62f
4:18 6 7 mph 1017.1mb 74f 62f
4:12 6 7 mph 1017.3mb 74f 62f
4:06 5 6 mph 1017.3mb 74f 62f
4:00 5 6 mph 1017.3mb 74f 62f
3:54 5 6 mph 1017.3mb 74f 62f
3:48 5 6 mph 1017.3mb 74f 62f
3:42 3 5 mph 1017.4mb 74f 62f
3:36 2 5 mph 1017.4mb 74f 62f
3:30 3 5 mph 1017.4mb 74f 62f
3:24 3 5 mph 1017.5mb 74f 62f
3:18 3 6 mph 1017.5mb 74f 62f
3:12 5 6 mph 1017.5mb 74f 62f
3:06 5 6 mph 1017.5mb 74f 62f
3:00 5 6 mph 1017.5mb 74f 62f
2:54 5 8 mph 1017.6mb 74f 62f
2:48 7 8 mph 1017.5mb 74f 62f
2:42 8 9 mph 1017.6mb 74f 63f
2:36 8 9 mph 1017.7mb 74f 63f
2:30 7 8 mph 1017.6mb 74f 63f
2:24 7 9 mph 1017.6mb 74f 62f
2:18 7 8 mph 1017.5mb 74f 62f
2:12 8 9 mph 1017.4mb 74f 62f
2:06 7 9 mph 1017.5mb 74f 63f
2:00 7 8 mph 1017.4mb 74f 64f
1:54 8 9 mph 1017.4mb 74f 64f
1:48 8
mph
1017.2mb 74f 64f
1:42 8 9 mph 1017.2mb 74f 64f
1:36 8 9 mph 1017.3mb 74f 64f
1:30 8 9 mph 1017.2mb 74f 64f
1:24 8 9 mph 1017.2mb 74f 64f
1:18 8 9 mph 1017.2mb 74f 64f
1:12 8 9 mph 1017.2mb 74f 64f
1:06 8 9 mph 1017.2mb 74f 64f
1:00 8 10 mph 1017.2mb 74f 65f
12:54 9 10 mph 1017.3mb 74f 65f
12:48 9 10 mph 1017.2mb 74f 65f
12:42 8 10 mph 1017.2mb 74f 65f
12:36 9 10 mph 1017.1mb 74f 65f
12:30 8 9 mph 1017.2mb 74f 65f
12:24 8 9 mph 1017.2mb 74f 65f
12:18 7 9 mph 1017.2mb 74f 65f
12:12 7 8 mph 1017.2mb 74f 66f
12:06 7 8 mph 1017.2mb 74f 66f
12:00 7 8 mph 1017.2mb 74f 66f
Qua 08/20 11:54 7 8 mph 1017.3mb 74f 66f
11:48 7 8 mph 1017.2mb 74f 66f
11:42 7 8 mph 1017.3mb 74f 66f
11:36 7 8 mph 1017.3mb 74f 66f
11:30 6
mph
1017.3mb 74f 67f
11:24 6
mph
1017.3mb 74f 67f
11:18 5
mph
1017.3mb 74f 68f
11:12 3
mph
1017.2mb 74f 67f
11:06 3
mph
1017.2mb 74f 68f
11:00 3 5 mph 1017.3mb 74f 68f
10:54 2 5 mph 1017.3mb 74f 69f
10:48 1 3 mph 1017.3mb 74f 68f
10:42 1 2 mph 1017.3mb 74f 69f
10:36  -  3 mph 1017.2mb 74f 69f
10:30 2 3 mph 1017.1mb 74f 69f
10:24 2 3 mph 1017.2mb 74f 69f
10:18 2 3 mph 1017.2mb 74f 69f
10:12 3 5 mph 1017.2mb 74f 69f
10:06 3 5 mph 1017.2mb 74f 69f
10:00 2 5 mph 1017.2mb 74f 69f
9:54 3 5 mph 1017.1mb 74f 69f
9:48 2 5 mph 1017.1mb 74f 69f
9:42 3 6 mph 1017mb 74f 69f
9:36 1 6 mph 1017.1mb 74f 69f
9:30 2 5 mph 1017.1mb 74f 69f
9:24 3 5 mph 1017.1mb 74f 69f
9:18 2 3 mph 1017mb 74f 69f
9:12 3 5 mph 1017mb 74f 69f
9:06 5 6 mph 1016.9mb 74f 69f
9:00 6 7 mph 1016.9mb 74f 69f
8:54 5 7 mph 1017mb 74f 70f
8:48 6 7 mph 1017.1mb 74f 70f
8:42 6 7 mph 1017.1mb 74f 70f
8:36 7
mph
1017.1mb 74f 70f
8:30 7 8 mph 1017mb 74f 70f
8:24 6 7 mph 1017mb 74f 70f
8:18 5 8 mph 1016.9mb 74f 70f
8:12 7 10 mph 1016.9mb 74f 70f
8:06 8 9 mph 1016.9mb 74f 70f
8:00 8 10 mph 1016.9mb 74f 70f
7:54 9 11 mph 1016.8mb 74f 70f
7:48 9 10 mph 1016.7mb 74f 70f
7:42 10
mph
1016.7mb 74f 70f
7:36 9 10 mph 1016.6mb 74f 70f
7:30 8 11 mph 1016.5mb 74f 70f
7:24 9 10 mph 1016.6mb 74f 70f
7:18 10 11 mph 1016.6mb 74f 70f
7:12 10 14 mph 1016.6mb 74f 70f
7:06 11 14 mph 1016.5mb 74f 71f
7:00 11 13 mph 1016.4mb 74f 71f
6:54 11 13 mph 1016.3mb 74f 71f
6:48 10 11 mph 1016.2mb 74f 71f
6:42 10 11 mph 1016.1mb 74f 71f
6:36 10 13 mph 1016.1mb 74f 71f
6:30 11 13 mph 1016.2mb 74f 71f
6:24 11 14 mph 1016.2mb 74f 71f
6:18 13 14 mph 1016.2mb 74f 71f
6:12 13 14 mph 1016.2mb 74f 71f
6:06 11 14 mph 1016.1mb 74f 71f
6:00 13 14 mph 1016.1mb 74f 71f
5:54 13 14 mph 1016.1mb 74f 71f
5:48 14 15 mph 1016mb 74f 71f
5:42 14 15 mph 1016.1mb 74f 71f
5:36 14 16 mph 1016mb 74f 71f
5:30 15 16 mph 1016mb 74f 71f
5:24 15 17 mph 1015.9mb 74f 71f
5:18 15 17 mph 1015.8mb 74f 71f
5:12 16 18 mph 1015.9mb 74f 72f
5:06 17 18 mph 1015.9mb 74f 72f
5:00 15 17 mph 1015.8mb 74f 72f
4:54 15 17 mph 1015.7mb 74f 72f
4:48 16 17 mph 1015.5mb 74f 72f
4:42 16 20 mph 1015.6mb 74f 72f
4:36 18 20 mph 1015.6mb 74f 72f
4:30 17 20 mph 1015.5mb 74f 73f
4:24 16 18 mph 1015.4mb 74f 73f
4:18 16 18 mph 1015.4mb 74f 73f
4:12 17 18 mph 1015.3mb 74f 73f
4:06 15 16 mph 1015.3mb 74f 73f
4:00 15 16 mph 1015.2mb 74f 73f
3:54 16 17 mph 1015.3mb 74f 73f
3:48 15 17 mph 1015.2mb 74f 73f
3:42 15 16 mph 1015.1mb 74f 73f
3:36 15 16 mph 1015.1mb 74f 73f
3:30 14 16 mph 1015.2mb 74f 74f
3:24 13 15 mph 1015.3mb 74f 74f
3:18 15 16 mph 1015.2mb 74f 74f
3:12 11 16 mph 1015.2mb 74f 74f
3:06 11 13 mph 1015.1mb 74f 74f
3:00 9 11 mph 1015.1mb 74f 75f
2:54 10 11 mph 1015.2mb 74f 75f
2:48 10 11 mph 1015.2mb 74f 75f
2:42 11
mph
1015.2mb 74f 75f
2:36 11 13 mph 1015.3mb 74f 75f
2:30 9 10 mph 1015.3mb 74f 75f
2:24 8 9 mph 1015.4mb 74f 76f
2:18 6
mph
1015.5mb 74f 76f
2:12 6 7 mph 1015.6mb 74f 76f
2:06 6 7 mph 1015.7mb 74f 76f
2:00 6 7 mph 1015.7mb 74f 76f
1:54 7
mph
1015.6mb 74f 76f
1:48 7
mph
1015.6mb 74f 75f
1:42 7 8 mph 1015.7mb 74f 75f
1:36 7
mph
1015.7mb 74f 75f
1:30 6 7 mph 1015.7mb 74f 75f
1:24 6 7 mph 1015.8mb 74f 75f
1:18 6 7 mph 1015.8mb 74f 75f
1:12 6
mph
1015.8mb 74f 75f
1:06 5 6 mph 1015.8mb 73f 75f
1:00 5 6 mph 1015.9mb 73f 75f
12:54 5 7 mph 1015.9mb 73f 74f
12:48 6 7 mph 1016mb 73f 74f
12:42 7
mph
1015.9mb 73f 74f
12:36 7
mph
1015.8mb 73f 74f
12:30 5 6 mph 1015.9mb 73f 74f
12:24 6
mph
1015.9mb 73f 74f
12:18 6
mph
1015.9mb 73f 74f
12:12 5 6 mph 1016mb 73f 74f
12:06 6
mph
1016mb 73f 73f
12:00 5 6 mph 1016.1mb 73f 74f
11:54 5
mph
1016.1mb 73f 73f
11:48 3 5 mph 1016.2mb 73f 73f
11:42 3 5 mph 1016.2mb 73f 73f
11:36 3 5 mph 1016.2mb 73f 73f
11:30 2 3 mph 1016.1mb 73f 73f
11:24 2
mph
1016.2mb 73f 73f
11:18 2
mph
1016.2mb 73f 73f
11:12 2 3 mph 1016.3mb 73f 72f
11:06 2 3 mph 1016.3mb 73f 72f
11:00 2 5 mph 1016.2mb 73f 72f
10:54 3
mph
1016.1mb 73f 72f
10:48 2
mph
1016.1mb 73f 72f
10:42 1 2 mph 1016.1mb 73f 72f
10:36 1 2 mph 1016mb 73f 72f
10:30  -  2 mph 1016mb 73f 73f
10:24  -  1 mph 1016mb 73f 73f
10:18  -  mph 1016.1mb 73f 72f
10:12  -  2 mph 1016mb 73f 73f
10:06 3
mph
1016mb 73f 73f
10:00 2 3 mph 1015.9mb 73f 73f
9:54 3 6 mph 1015.9mb 73f 72f
9:48 5 8 mph 1015.8mb 73f 72f
9:42 7 8 mph 1015.8mb 73f 71f
9:36 8 9 mph 1015.7mb 73f 71f
9:30 6 8 mph 1015.7mb 73f 71f
9:24 2 5 mph 1015.6mb 73f 70f
9:18 1 3 mph 1015.6mb 72f 70f
9:12 2 3 mph 1015.6mb 72f 69f
9:06 3 5 mph 1015.6mb 72f 68f
9:00 5
mph
1015.6mb 72f 67f
8:54 5 6 mph 1015.6mb 72f 67f
8:48 5 6 mph 1015.5mb 72f 67f
8:42 5
mph
1015.5mb 72f 68f
8:36 5 6 mph 1015.6mb 72f 68f
8:30 5
mph
1015.6mb 72f 67f
8:24 5
mph
1015.6mb 72f 66f
8:18 5 6 mph 1015.6mb 72f 66f
8:12 6
mph
1015.6mb 72f 65f
8:06 6
mph
1015.6mb 72f 64f
8:00 5
mph
1015.6mb 72f 64f
7:54 3 5 mph 1015.6mb 72f 64f
7:48 5 6 mph 1015.5mb 72f 64f
7:42 5 6 mph 1015.4mb 72f 64f
7:36 5 6 mph 1015.4mb 72f 64f
7:30 5 6 mph 1015.4mb 72f 63f
7:24 5 6 mph 1015.4mb 72f 63f
7:18 6
mph
1015.4mb 72f 63f
7:12 5 7 mph 1015.4mb 72f 62f
7:06 6 7 mph 1015.4mb 72f 62f
7:00 7
mph
1015.5mb 72f 62f
6:54 6 7 mph 1015.4mb 72f 62f
6:48 6 7 mph 1015.4mb 72f 62f
6:42 6 7 mph 1015.4mb 72f 63f
6:36 5 6 mph 1015.4mb 72f 62f
6:30 5 6 mph 1015.3mb 72f 62f
6:24 5 6 mph 1015.2mb 72f 63f
6:18 5 6 mph 1015.2mb 72f 62f
6:12 6
mph
1015.2mb 72f 62f
6:06 5 6 mph 1015.1mb 72f 63f
6:00 3 5 mph 1015mb 72f 62f
5:54 3 5 mph 1015mb 72f 62f
5:48 5 6 mph 1015mb 72f 62f
5:42 2 3 mph 1015.1mb 72f 62f
5:36 2 5 mph 1015.1mb 72f 62f
5:30 5
mph
1015mb 72f 62f
5:24 3 5 mph 1014.9mb 72f 62f
5:18 3
mph
1014.8mb 72f 62f
5:12 3 5 mph 1014.9mb 72f 62f
5:06 3 5 mph 1014.8mb 72f 62f
5:00 3 5 mph 1014.7mb 72f 62f
4:54 3
mph
1014.7mb 72f 62f
4:48 3
mph
1014.6mb 72f 63f
4:42 3
mph
1014.7mb 72f 63f
4:36 3 5 mph 1014.6mb 72f 63f
4:30 3 6 mph 1014.6mb 72f 64f
4:24 5 6 mph 1014.6mb 72f 64f
4:18 5
mph
1014.7mb 72f 64f
4:12 3
mph
1014.6mb 72f 64f
4:06 3 6 mph 1014.5mb 72f 64f
4:00 6 7 mph 1014.5mb 72f 64f
3:54 5 6 mph 1014.5mb 72f 64f
3:48 6
mph
1014.5mb 72f 64f
3:42 6 7 mph 1014.4mb 72f 64f
3:36 6 7 mph 1014.4mb 73f 63f
3:30 5 6 mph 1014.4mb 73f 64f
3:24 2 3 mph 1014.4mb 73f 64f
3:18 3 5 mph 1014.3mb 73f 64f
3:12 2 3 mph 1014.3mb 73f 64f
3:06 2 3 mph 1014.3mb 73f 64f
3:00 2 3 mph 1014.3mb 73f 64f
2:54 3
mph
1014.2mb 73f 64f
2:48 3
mph
1014.2mb 73f 64f
2:42 3 5 mph 1014.2mb 73f 64f
2:36 5
mph
1014.2mb 73f 64f
2:30 3 5 mph 1014.3mb 73f 64f
2:24 5 6 mph 1014.3mb 73f 65f
2:18 5
mph
1014.3mb 73f 65f
2:12 5
mph
1014.3mb 73f 65f
2:06 5
mph
1014.3mb 73f 65f
2:00 3
mph
1014.3mb 73f 65f
1:54 3
mph
1014.3mb 73f 66f
1:48 2
mph
1014.3mb 73f 66f
1:42 2 3 mph 1014.3mb 73f 66f
1:36 3
mph
1014.3mb 73f 66f
1:30 2 3 mph 1014.4mb 73f 66f
1:24 2 3 mph 1014.4mb 73f 66f
1:18 2 3 mph 1014.4mb 73f 66f
1:12 2 3 mph 1014.4mb 73f 66f
1:06 2 3 mph 1014.4mb 73f 66f
1:00 2 3 mph 1014.3mb 73f 66f
12:54 2 3 mph 1014.4mb 73f 66f
12:48 3 5 mph 1014.5mb 73f 66f
12:42 3
mph
1014.5mb 73f 66f
12:36 3 5 mph 1014.6mb 73f 66f
12:30 3 5 mph 1014.5mb 73f 66f
12:24 3 5 mph 1014.5mb 73f 66f
12:18 3 5 mph 1014.5mb 73f -
12:12 5 7 mph 1014.4mb 73f -
12:06 6 8 mph 1014.4mb 73f -
12:00 7 9 mph 1014.3mb 73f 67f
Ter 08/19 11:54 9 10 mph 1014.3mb 73f 67f
11:48 9 11 mph 1014.2mb 73f 68f
11:42 9 10 mph 1014.3mb 73f 67f
11:36 8 9 mph 1014.2mb 73f 67f
11:30 8 9 mph 1014.2mb 73f 68f
11:24 8 9 mph 1014.2mb 73f 67f
11:18 8 9 mph 1014.2mb 73f 68f
11:12 8 9 mph 1014.1mb 73f 67f
11:06 9 10 mph 1014.1mb 73f 68f
11:00 10 11 mph 1014.2mb 73f 68f
10:54 10 13 mph 1014.2mb 73f 68f
10:48 10 11 mph 1014mb 73f 68f
10:42 10 11 mph 1013.9mb 73f 68f
10:36 10 13 mph 1013.8mb 73f 68f
10:30 10 13 mph 1013.7mb 73f 68f
10:24 10 11 mph 1013.7mb 73f 68f
10:18 10 11 mph 1013.6mb 73f 68f
10:12 10 14 mph 1013.6mb 73f 68f
10:06 10 11 mph 1013.6mb 73f 68f
10:00 8 11 mph 1013.7mb 73f 68f
9:54 11 13 mph 1013.7mb 73f 68f
9:48 8 9 mph 1013.7mb 73f 68f
9:42 9 11 mph 1013.7mb 73f 68f
9:36 9 10 mph 1013.7mb 73f 68f
9:30 8 10 mph 1013.6mb 73f 69f
9:24 10 13 mph 1013.6mb 73f 69f
9:18 10 11 mph 1013.7mb 73f 69f
9:12 8 9 mph 1013.6mb 73f 69f
9:06 7 9 mph 1013.8mb 73f 69f
9:00 6 9 mph 1013.7mb 73f 70f
8:54 8 11 mph 1013.6mb 73f 70f
8:48 10 13 mph 1013.4mb 73f 70f
8:42 9 10 mph 1013.4mb 73f 70f
8:36 5 7 mph 1013.5mb 73f 69f
8:30 5 7 mph 1013.4mb 73f 69f
8:24 7 10 mph 1013.3mb 73f 69f
8:18 10 13 mph 1013.1mb 73f 70f
8:12 11 14 mph 1013mb 73f 70f
8:06 13 14 mph 1012.9mb 73f 70f
8:00 11 14 mph 1012.9mb 73f 70f
7:54 11
mph
1012.8mb 73f 70f
7:48 9 10 mph 1012.8mb 73f 70f
7:42 10 13 mph 1012.7mb 73f 70f
7:36 10 14 mph 1012.7mb 73f 71f
7:30 13 15 mph 1012.6mb 73f 71f
7:24 15 16 mph 1012.6mb 73f 71f
7:18 11 15 mph 1012.5mb 73f 71f
7:12 14 17 mph 1012.4mb 73f 71f
7:06 16 17 mph 1012.4mb 73f 71f
7:00 16 17 mph 1012.5mb 73f 71f
6:54 15 16 mph 1012.3mb 73f 71f
6:48 15 17 mph 1012.3mb 73f 71f
6:42 16 17 mph 1012.2mb 73f 71f
6:36 16 17 mph 1012.2mb 73f 72f
6:30 16 17 mph 1012.2mb 73f 72f
6:24 16 17 mph 1012.2mb 73f 72f
6:18 16 17 mph 1012.3mb 73f 72f
6:12 15 17 mph 1012.4mb 73f 72f
6:06 16 18 mph 1012.3mb 73f 72f
6:00 16 18 mph 1012.4mb 73f 72f
5:54 16 17 mph 1012.4mb 73f 72f
5:48 17 18 mph 1012.4mb 73f 73f
5:42 16 18 mph 1012.4mb 72f 72f
5:36 17 20 mph 1012.4mb 72f 72f
5:30 18 20 mph 1012.4mb 72f 72f
5:24 17 20 mph 1012.4mb 72f 72f
5:18 18 21 mph 1012.3mb 72f 72f
5:12 17 20 mph 1012.4mb 72f 72f
5:06 20
mph
1012.4mb 72f 72f
5:00 18 21 mph 1012.4mb 72f 72f
4:54 18 20 mph 1012.4mb 72f 72f
4:48 16 17 mph 1012.4mb 72f 72f
4:42 17 18 mph 1012.4mb 72f 72f
4:36 16 18 mph 1012.3mb 72f 72f
4:30 17 18 mph 1012.2mb 72f 72f
4:24 17 20 mph 1012.3mb 72f 72f
4:18 17 18 mph 1012.3mb 72f 72f
4:12 18 20 mph 1012.3mb 72f 72f
4:06 17 18 mph 1012.2mb 72f 72f
4:00 18 20 mph 1012.3mb 72f 72f
3:54 18 20 mph 1012.3mb 72f 72f
3:48 17 20 mph 1012.3mb 72f 72f
3:42 18 20 mph 1012.3mb 72f 72f
3:36 18 21 mph 1012.2mb 72f 72f
3:30 18
mph
1012.2mb 72f 72f
3:24 18 20 mph 1012.2mb 72f 72f
3:18 17 18 mph 1012.2mb 72f 72f
3:12 13 15 mph 1012.3mb 72f 73f
3:06 9 10 mph 1012.3mb 72f 73f
3:00 9 13 mph 1012.2mb 72f 73f
2:54 10 11 mph 1012.2mb 72f 73f
2:48 6 8 mph 1012.3mb 71f 74f
2:42 7 8 mph 1012.2mb 71f 74f
2:36 7
mph
1012.3mb 71f 73f
2:30 7 8 mph 1012.4mb 71f 73f
2:24 7 8 mph 1012.5mb 72f 73f
2:18 8 10 mph 1012.6mb 72f 73f
2:12 8 9 mph 1012.7mb 72f 72f
2:06 8 9 mph 1012.7mb 72f 73f
2:00 8 10 mph 1012.7mb 72f 72f
1:54 9 10 mph 1012.7mb 72f 72f
1:48 8 9 mph 1012.7mb 72f 72f
1:42 6 7 mph 1012.7mb 72f 72f
1:36 6 8 mph 1012.7mb 72f 72f
1:30 7 9 mph 1012.8mb 72f 72f
1:24 7
mph
1012.8mb 72f 72f
1:18 6
mph
1012.8mb 72f 72f
1:12 6 7 mph 1012.8mb 72f 72f
1:06 6
mph
1012.9mb 72f 71f
1:00 5
mph
1013mb 72f 71f
12:54 5 6 mph 1013mb 72f 71f
12:48 6 7 mph 1012.9mb 72f 71f
12:42 6 8 mph 1013mb 72f 71f
12:36 7 8 mph 1013mb 72f 70f
12:30 6
mph
1012.9mb 72f 70f
12:24 6 7 mph 1013mb 72f 70f
12:18 5 6 mph 1013mb 72f 70f
12:12 5 7 mph 1013mb 72f 70f
12:06 5 7 mph 1013.2mb 72f 70f
12:00 6 7 mph 1013.2mb 72f 70f
11:54 1 2 mph 1013.3mb 72f 71f
11:48 1 2 mph 1013.3mb 72f 72f
11:42 2
mph
1013.3mb 72f 74f
11:36 2 3 mph 1013.3mb 72f 73f
11:30 3
mph
1013.4mb 72f 71f
11:24 3 5 mph 1013.5mb 72f 69f
11:18 3 6 mph 1013.6mb 72f 69f
11:12 5 6 mph 1013.6mb 72f 69f
11:06 5 6 mph 1013.7mb 71f 68f
11:00 5 6 mph 1013.6mb 71f 68f
10:54 5 6 mph 1013.5mb 71f 68f
10:48 2 3 mph 1013.5mb 71f 68f
10:42 2 3 mph 1013.5mb 71f 67f
10:36 2 3 mph 1013.5mb 71f 67f
10:30 3
mph
1013.5mb 71f 67f
10:24 3 5 mph 1013.5mb 71f 67f
10:18 1 3 mph 1013.5mb 71f 66f
10:12  -  3 mph 1013.4mb 71f 66f
10:06 1 2 mph 1013.3mb 71f 66f
10:00 1 3 mph 1013.3mb 71f 65f
9:54  -  1 mph 1013.3mb 71f 66f
9:48  -  2 mph 1013.2mb 71f 65f
9:42  -  2 mph 1013.2mb 71f 65f
9:36 2
mph
1013.2mb 71f 65f
9:30 2
mph
1013.2mb 71f 65f
9:24 2 3 mph 1013.3mb 71f 65f
9:18 2 3 mph 1013.1mb 71f 65f
9:12 2 5 mph 1013.1mb 71f 64f
9:06 3 5 mph 1013.1mb 71f 64f
9:00 5
mph
1013.3mb 71f 64f
8:54 5
mph
1013.4mb 71f 64f
8:48 5 6 mph 1013.3mb 71f 64f
8:42 5 6 mph 1013.3mb 71f 63f
8:36 5 6 mph 1013.3mb 71f 62f
8:30 5
mph
1013.3mb 71f 62f
8:24 5
mph
1013.2mb 71f 63f
8:18 3 5 mph 1013.1mb 71f 62f
8:12 5 6 mph 1013mb 71f 63f
8:06 3 6 mph 1013mb 71f 61f
8:00 5 6 mph 1013mb 71f 61f
7:54 5 6 mph 1013.1mb 71f 60f
7:48 5 6 mph 1013.1mb 71f 60f
7:42 5
mph
1013.1mb 71f 60f
7:36 5
mph
1013.1mb 71f 60f
7:30 5 6 mph 1013mb 71f 60f
7:24 5 6 mph 1013mb 71f 60f
7:18 3 5 mph 1012.9mb 71f 60f
7:12 3 5 mph 1013mb 71f 60f
7:06 3 5 mph 1012.9mb 71f 60f
7:00 3 5 mph 1012.7mb 71f 60f
6:54 3 5 mph 1012.7mb 71f 60f
6:48 5 6 mph 1012.7mb 72f 60f
6:42 5 6 mph 1012.6mb 72f 60f
6:36 6
mph
1012.6mb 72f 60f
6:30 5
mph
1012.5mb 72f 60f
6:24 5 6 mph 1012.5mb 72f 60f
6:18 5
mph
1012.4mb 72f 60f
6:12 5 6 mph 1012.4mb 72f 60f
6:06 5
mph
1012.4mb 72f 60f
6:00 5 6 mph 1012.3mb 72f 60f
5:54 6
mph
1012.3mb 72f 60f
5:48 6 7 mph 1012.3mb 72f 60f
5:42 6 7 mph 1012.2mb 72f 60f
5:36 6 7 mph 1012.1mb 72f 60f
5:30 6 7 mph 1012.1mb 72f 60f
5:24 5 6 mph 1012.1mb 72f 59f
5:18 6 7 mph 1012mb 72f 60f
5:12 6
mph
1011.9mb 72f 60f
5:06 5 6 mph 1011.9mb 72f 60f
5:00 6
mph
1011.9mb 72f 60f
4:54 5 6 mph 1011.9mb 72f 60f
4:48 5 6 mph 1011.9mb 72f 60f
4:42 5 6 mph 1011.8mb 72f 60f
4:36 5 6 mph 1011.8mb 72f 61f
4:30 6
mph
1011.9mb 72f 61f
4:24 6 7 mph 1011.8mb 72f 61f
4:18 7 8 mph 1011.8mb 72f 61f
4:12 7
mph
1011.8mb 72f 61f
4:06 6
mph
1011.7mb 72f 62f
4:00 6
mph
1011.7mb 72f 62f
3:54 6
mph
1011.6mb 72f 62f
3:48 5 6 mph 1011.6mb 72f 62f
3:42 6
mph
1011.5mb 72f 62f
3:36 5 6 mph 1011.4mb 72f 62f
3:30 6 7 mph 1011.4mb 72f 62f
3:24 6 7 mph 1011.4mb 72f 62f
3:18 6 8 mph 1011.5mb 72f 62f
3:12 7 8 mph 1011.5mb 72f 62f
3:06 6 7 mph 1011.5mb 72f 62f
3:00 6 7 mph 1011.6mb 72f 63f
2:54 7 8 mph 1011.5mb 72f 63f
2:48 6 7 mph 1011.6mb 72f 63f
2:42 6 7 mph 1011.6mb 72f 63f
2:36 5 7 mph 1011.6mb 72f 62f
2:30 7 8 mph 1011.5mb 72f 63f
2:24 6 7 mph 1011.5mb 72f 63f
2:18 5 6 mph 1011.5mb 72f 63f
2:12 5 6 mph 1011.5mb 72f 63f